sensor_id;sensor_type;location;lat;lon;timestamp;P1;durP1;ratioP1;P2;durP2;ratioP2
31848;SDS011;18414;59.352;18.152;2023-08-08T00:01:40;2.97;;;0.90;;
31848;SDS011;18414;59.352;18.152;2023-08-08T00:04:08;3.03;;;1.10;;
31848;SDS011;18414;59.352;18.152;2023-08-08T00:06:34;3.45;;;0.90;;
31848;SDS011;18414;59.352;18.152;2023-08-08T00:08:59;2.28;;;0.90;;
31848;SDS011;18414;59.352;18.152;2023-08-08T00:11:25;3.78;;;1.05;;
31848;SDS011;18414;59.352;18.152;2023-08-08T00:13:50;3.25;;;1.10;;
31848;SDS011;18414;59.352;18.152;2023-08-08T00:16:15;2.40;;;1.00;;
31848;SDS011;18414;59.352;18.152;2023-08-08T00:18:41;4.20;;;1.33;;
31848;SDS011;18414;59.352;18.152;2023-08-08T00:21:06;3.63;;;1.17;;
31848;SDS011;18414;59.352;18.152;2023-08-08T00:23:31;4.10;;;1.02;;
31848;SDS011;18414;59.352;18.152;2023-08-08T00:25:57;2.35;;;0.90;;
31848;SDS011;18414;59.352;18.152;2023-08-08T00:28:22;4.07;;;1.02;;
31848;SDS011;18414;59.352;18.152;2023-08-08T00:30:47;3.45;;;1.00;;
31848;SDS011;18414;59.352;18.152;2023-08-08T00:33:13;3.90;;;1.27;;
31848;SDS011;18414;59.352;18.152;2023-08-08T00:35:38;3.10;;;1.25;;
31848;SDS011;18414;59.352;18.152;2023-08-08T00:38:03;4.47;;;1.30;;
31848;SDS011;18414;59.352;18.152;2023-08-08T00:40:29;3.58;;;1.13;;
31848;SDS011;18414;59.352;18.152;2023-08-08T00:42:54;3.70;;;1.10;;
31848;SDS011;18414;59.352;18.152;2023-08-08T00:45:19;2.28;;;0.90;;
31848;SDS011;18414;59.352;18.152;2023-08-08T00:47:45;2.90;;;0.80;;
31848;SDS011;18414;59.352;18.152;2023-08-08T00:50:10;4.35;;;1.30;;
31848;SDS011;18414;59.352;18.152;2023-08-08T00:52:37;3.22;;;0.90;;
31848;SDS011;18414;59.352;18.152;2023-08-08T00:55:03;6.03;;;1.08;;
31848;SDS011;18414;59.352;18.152;2023-08-08T00:57:29;4.22;;;1.00;;
31848;SDS011;18414;59.352;18.152;2023-08-08T00:59:55;3.30;;;0.93;;
31848;SDS011;18414;59.352;18.152;2023-08-08T01:02:20;1.75;;;0.80;;
31848;SDS011;18414;59.352;18.152;2023-08-08T01:04:46;3.70;;;0.90;;
31848;SDS011;18414;59.352;18.152;2023-08-08T01:07:16;2.83;;;0.90;;
31848;SDS011;18414;59.352;18.152;2023-08-08T01:09:59;3.65;;;1.02;;
31848;SDS011;18414;59.352;18.152;2023-08-08T01:12:31;5.70;;;1.10;;
31848;SDS011;18414;59.352;18.152;2023-08-08T01:14:57;3.92;;;1.00;;
31848;SDS011;18414;59.352;18.152;2023-08-08T01:17:22;3.78;;;1.05;;
31848;SDS011;18414;59.352;18.152;2023-08-08T01:19:48;4.03;;;1.00;;
31848;SDS011;18414;59.352;18.152;2023-08-08T01:22:14;3.55;;;1.10;;
31848;SDS011;18414;59.352;18.152;2023-08-08T01:24:48;5.10;;;1.25;;
31848;SDS011;18414;59.352;18.152;2023-08-08T01:27:13;4.78;;;1.00;;
31848;SDS011;18414;59.352;18.152;2023-08-08T01:29:39;3.60;;;1.10;;
31848;SDS011;18414;59.352;18.152;2023-08-08T01:32:06;3.47;;;0.77;;
31848;SDS011;18414;59.352;18.152;2023-08-08T01:34:34;4.22;;;0.95;;
31848;SDS011;18414;59.352;18.152;2023-08-08T01:37:02;4.72;;;1.10;;
31848;SDS011;18414;59.352;18.152;2023-08-08T01:39:32;3.58;;;1.13;;
31848;SDS011;18414;59.352;18.152;2023-08-08T01:41:59;2.83;;;1.08;;
31848;SDS011;18414;59.352;18.152;2023-08-08T01:44:25;6.22;;;1.30;;
31848;SDS011;18414;59.352;18.152;2023-08-08T01:46:54;5.88;;;1.35;;
31848;SDS011;18414;59.352;18.152;2023-08-08T01:49:20;4.93;;;1.10;;
31848;SDS011;18414;59.352;18.152;2023-08-08T01:51:45;5.70;;;1.02;;
31848;SDS011;18414;59.352;18.152;2023-08-08T01:54:10;3.75;;;1.00;;
31848;SDS011;18414;59.352;18.152;2023-08-08T01:56:35;3.38;;;1.02;;
31848;SDS011;18414;59.352;18.152;2023-08-08T01:59:01;3.30;;;0.98;;
31848;SDS011;18414;59.352;18.152;2023-08-08T02:01:26;6.07;;;0.90;;
31848;SDS011;18414;59.352;18.152;2023-08-08T02:03:52;4.32;;;1.10;;
31848;SDS011;18414;59.352;18.152;2023-08-08T02:06:17;4.93;;;1.27;;
31848;SDS011;18414;59.352;18.152;2023-08-08T02:08:42;5.30;;;1.27;;
31848;SDS011;18414;59.352;18.152;2023-08-08T02:11:08;6.63;;;1.35;;
31848;SDS011;18414;59.352;18.152;2023-08-08T02:13:33;4.47;;;1.10;;
31848;SDS011;18414;59.352;18.152;2023-08-08T02:15:59;2.45;;;1.02;;
31848;SDS011;18414;59.352;18.152;2023-08-08T02:18:24;4.28;;;1.30;;
31848;SDS011;18414;59.352;18.152;2023-08-08T02:20:49;3.65;;;0.90;;
31848;SDS011;18414;59.352;18.152;2023-08-08T02:23:14;3.72;;;0.95;;
31848;SDS011;18414;59.352;18.152;2023-08-08T02:25:40;5.20;;;1.17;;
31848;SDS011;18414;59.352;18.152;2023-08-08T02:28:05;3.80;;;1.00;;
31848;SDS011;18414;59.352;18.152;2023-08-08T02:30:31;2.90;;;0.82;;
31848;SDS011;18414;59.352;18.152;2023-08-08T02:32:56;5.55;;;1.38;;
31848;SDS011;18414;59.352;18.152;2023-08-08T02:35:21;3.55;;;0.98;;
31848;SDS011;18414;59.352;18.152;2023-08-08T02:37:47;4.30;;;1.30;;
31848;SDS011;18414;59.352;18.152;2023-08-08T02:40:12;2.20;;;0.90;;
31848;SDS011;18414;59.352;18.152;2023-08-08T02:42:38;3.72;;;1.10;;
31848;SDS011;18414;59.352;18.152;2023-08-08T02:45:04;5.28;;;1.05;;
31848;SDS011;18414;59.352;18.152;2023-08-08T02:47:30;9.00;;;1.30;;
31848;SDS011;18414;59.352;18.152;2023-08-08T02:49:55;2.40;;;0.88;;
31848;SDS011;18414;59.352;18.152;2023-08-08T02:52:20;3.60;;;1.10;;
31848;SDS011;18414;59.352;18.152;2023-08-08T02:54:46;3.65;;;0.80;;
31848;SDS011;18414;59.352;18.152;2023-08-08T02:57:11;3.28;;;1.00;;
31848;SDS011;18414;59.352;18.152;2023-08-08T02:59:37;2.28;;;1.00;;
31848;SDS011;18414;59.352;18.152;2023-08-08T03:02:03;2.65;;;1.20;;
31848;SDS011;18414;59.352;18.152;2023-08-08T03:04:28;3.75;;;0.93;;
31848;SDS011;18414;59.352;18.152;2023-08-08T03:06:54;5.75;;;1.20;;
31848;SDS011;18414;59.352;18.152;2023-08-08T03:09:20;3.20;;;1.10;;
31848;SDS011;18414;59.352;18.152;2023-08-08T03:11:45;4.82;;;1.23;;
31848;SDS011;18414;59.352;18.152;2023-08-08T03:14:10;3.42;;;0.93;;
31848;SDS011;18414;59.352;18.152;2023-08-08T03:16:36;5.22;;;1.13;;
31848;SDS011;18414;59.352;18.152;2023-08-08T03:19:01;4.75;;;1.23;;
31848;SDS011;18414;59.352;18.152;2023-08-08T03:21:26;6.10;;;1.13;;
31848;SDS011;18414;59.352;18.152;2023-08-08T03:23:53;6.10;;;1.15;;
31848;SDS011;18414;59.352;18.152;2023-08-08T03:26:18;2.88;;;1.00;;
31848;SDS011;18414;59.352;18.152;2023-08-08T03:28:43;4.20;;;1.20;;
31848;SDS011;18414;59.352;18.152;2023-08-08T03:31:09;2.50;;;0.80;;
31848;SDS011;18414;59.352;18.152;2023-08-08T03:33:34;2.45;;;1.00;;
31848;SDS011;18414;59.352;18.152;2023-08-08T03:35:59;4.18;;;1.20;;
31848;SDS011;18414;59.352;18.152;2023-08-08T03:38:25;3.20;;;1.10;;
31848;SDS011;18414;59.352;18.152;2023-08-08T03:40:50;5.32;;;1.20;;
31848;SDS011;18414;59.352;18.152;2023-08-08T03:43:16;3.10;;;1.00;;
31848;SDS011;18414;59.352;18.152;2023-08-08T03:45:41;6.53;;;1.40;;
31848;SDS011;18414;59.352;18.152;2023-08-08T03:48:06;5.13;;;1.17;;
31848;SDS011;18414;59.352;18.152;2023-08-08T03:50:32;6.80;;;1.20;;
31848;SDS011;18414;59.352;18.152;2023-08-08T03:52:57;4.95;;;1.20;;
31848;SDS011;18414;59.352;18.152;2023-08-08T03:55:22;3.50;;;1.10;;
31848;SDS011;18414;59.352;18.152;2023-08-08T03:57:48;3.10;;;1.02;;
31848;SDS011;18414;59.352;18.152;2023-08-08T04:00:13;2.28;;;1.10;;
31848;SDS011;18414;59.352;18.152;2023-08-08T04:02:39;3.22;;;1.00;;
31848;SDS011;18414;59.352;18.152;2023-08-08T04:05:04;4.15;;;1.00;;
31848;SDS011;18414;59.352;18.152;2023-08-08T04:07:30;2.58;;;1.05;;
31848;SDS011;18414;59.352;18.152;2023-08-08T04:09:55;3.90;;;0.90;;
31848;SDS011;18414;59.352;18.152;2023-08-08T04:12:20;4.03;;;1.20;;
31848;SDS011;18414;59.352;18.152;2023-08-08T04:14:46;2.38;;;0.88;;
31848;SDS011;18414;59.352;18.152;2023-08-08T04:17:11;1.65;;;0.68;;
31848;SDS011;18414;59.352;18.152;2023-08-08T04:19:36;1.50;;;0.82;;
31848;SDS011;18414;59.352;18.152;2023-08-08T04:22:02;3.13;;;0.80;;
31848;SDS011;18414;59.352;18.152;2023-08-08T04:24:27;2.05;;;0.75;;
31848;SDS011;18414;59.352;18.152;2023-08-08T04:26:53;1.00;;;0.63;;
31848;SDS011;18414;59.352;18.152;2023-08-08T04:29:18;2.22;;;0.65;;
31848;SDS011;18414;59.352;18.152;2023-08-08T04:31:43;2.08;;;1.05;;
31848;SDS011;18414;59.352;18.152;2023-08-08T04:34:09;1.75;;;0.68;;
31848;SDS011;18414;59.352;18.152;2023-08-08T04:36:34;1.77;;;0.80;;
31848;SDS011;18414;59.352;18.152;2023-08-08T04:38:59;1.50;;;0.60;;
31848;SDS011;18414;59.352;18.152;2023-08-08T04:41:25;2.40;;;0.60;;
31848;SDS011;18414;59.352;18.152;2023-08-08T04:43:50;1.75;;;0.88;;
31848;SDS011;18414;59.352;18.152;2023-08-08T04:46:15;2.05;;;0.75;;
31848;SDS011;18414;59.352;18.152;2023-08-08T04:48:41;2.42;;;0.50;;
31848;SDS011;18414;59.352;18.152;2023-08-08T04:51:06;0.90;;;0.40;;
31848;SDS011;18414;59.352;18.152;2023-08-08T04:53:33;1.08;;;0.60;;
31848;SDS011;18414;59.352;18.152;2023-08-08T04:55:58;2.38;;;0.70;;
31848;SDS011;18414;59.352;18.152;2023-08-08T04:58:23;0.38;;;0.32;;
31848;SDS011;18414;59.352;18.152;2023-08-08T05:00:49;2.63;;;0.57;;
31848;SDS011;18414;59.352;18.152;2023-08-08T05:03:15;2.25;;;0.63;;
31848;SDS011;18414;59.352;18.152;2023-08-08T05:05:41;1.50;;;0.60;;
31848;SDS011;18414;59.352;18.152;2023-08-08T05:08:08;1.95;;;0.50;;
31848;SDS011;18414;59.352;18.152;2023-08-08T05:10:33;1.60;;;0.70;;
31848;SDS011;18414;59.352;18.152;2023-08-08T05:12:59;1.13;;;0.40;;
31848;SDS011;18414;59.352;18.152;2023-08-08T05:15:24;1.33;;;0.45;;
31848;SDS011;18414;59.352;18.152;2023-08-08T05:17:50;1.63;;;0.65;;
31848;SDS011;18414;59.352;18.152;2023-08-08T05:20:16;1.50;;;0.75;;
31848;SDS011;18414;59.352;18.152;2023-08-08T05:22:41;1.25;;;0.60;;
31848;SDS011;18414;59.352;18.152;2023-08-08T05:25:07;0.57;;;0.50;;
31848;SDS011;18414;59.352;18.152;2023-08-08T05:27:32;0.50;;;0.50;;
31848;SDS011;18414;59.352;18.152;2023-08-08T05:29:58;0.50;;;0.50;;
31848;SDS011;18414;59.352;18.152;2023-08-08T05:32:23;1.60;;;0.45;;
31848;SDS011;18414;59.352;18.152;2023-08-08T05:34:50;1.15;;;0.60;;
31848;SDS011;18414;59.352;18.152;2023-08-08T05:37:16;0.95;;;0.40;;
31848;SDS011;18414;59.352;18.152;2023-08-08T05:39:42;1.15;;;0.50;;
31848;SDS011;18414;59.352;18.152;2023-08-08T05:42:07;1.10;;;0.52;;
31848;SDS011;18414;59.352;18.152;2023-08-08T05:44:32;0.90;;;0.47;;
31848;SDS011;18414;59.352;18.152;2023-08-08T05:46:58;0.95;;;0.50;;
31848;SDS011;18414;59.352;18.152;2023-08-08T05:49:23;0.63;;;0.43;;
31848;SDS011;18414;59.352;18.152;2023-08-08T05:51:48;1.88;;;0.65;;
31848;SDS011;18414;59.352;18.152;2023-08-08T05:54:14;2.35;;;0.60;;
31848;SDS011;18414;59.352;18.152;2023-08-08T05:56:39;1.20;;;0.50;;
31848;SDS011;18414;59.352;18.152;2023-08-08T05:59:04;0.55;;;0.50;;
31848;SDS011;18414;59.352;18.152;2023-08-08T06:01:30;0.93;;;0.50;;
31848;SDS011;18414;59.352;18.152;2023-08-08T06:03:55;0.65;;;0.45;;
31848;SDS011;18414;59.352;18.152;2023-08-08T06:06:24;0.50;;;0.50;;
31848;SDS011;18414;59.352;18.152;2023-08-08T06:08:50;0.50;;;0.50;;
31848;SDS011;18414;59.352;18.152;2023-08-08T06:11:15;0.32;;;0.32;;
31848;SDS011;18414;59.352;18.152;2023-08-08T06:13:41;0.52;;;0.38;;
31848;SDS011;18414;59.352;18.152;2023-08-08T06:16:06;0.52;;;0.40;;
31848;SDS011;18414;59.352;18.152;2023-08-08T06:18:32;0.77;;;0.30;;
31848;SDS011;18414;59.352;18.152;2023-08-08T06:20:58;1.10;;;0.40;;
31848;SDS011;18414;59.352;18.152;2023-08-08T06:23:23;0.80;;;0.45;;
31848;SDS011;18414;59.352;18.152;2023-08-08T06:25:49;0.63;;;0.40;;
31848;SDS011;18414;59.352;18.152;2023-08-08T06:28:14;0.40;;;0.30;;
31848;SDS011;18414;59.352;18.152;2023-08-08T06:30:40;2.47;;;0.47;;
31848;SDS011;18414;59.352;18.152;2023-08-08T06:33:05;1.13;;;0.57;;
31848;SDS011;18414;59.352;18.152;2023-08-08T06:35:31;1.20;;;0.52;;
31848;SDS011;18414;59.352;18.152;2023-08-08T06:37:56;1.23;;;0.45;;
31848;SDS011;18414;59.352;18.152;2023-08-08T06:40:22;0.60;;;0.47;;
31848;SDS011;18414;59.352;18.152;2023-08-08T06:42:48;0.50;;;0.50;;
31848;SDS011;18414;59.352;18.152;2023-08-08T06:45:14;0.40;;;0.40;;
31848;SDS011;18414;59.352;18.152;2023-08-08T06:47:39;0.50;;;0.50;;
31848;SDS011;18414;59.352;18.152;2023-08-08T06:50:05;0.93;;;0.40;;
31848;SDS011;18414;59.352;18.152;2023-08-08T06:52:31;0.52;;;0.43;;
31848;SDS011;18414;59.352;18.152;2023-08-08T06:54:56;0.77;;;0.55;;
31848;SDS011;18414;59.352;18.152;2023-08-08T06:57:22;1.85;;;0.50;;
31848;SDS011;18414;59.352;18.152;2023-08-08T06:59:47;0.82;;;0.50;;
31848;SDS011;18414;59.352;18.152;2023-08-08T07:02:15;0.40;;;0.40;;
31848;SDS011;18414;59.352;18.152;2023-08-08T07:04:41;3.25;;;0.70;;
31848;SDS011;18414;59.352;18.152;2023-08-08T07:07:07;0.98;;;0.50;;
31848;SDS011;18414;59.352;18.152;2023-08-08T07:09:32;1.55;;;0.60;;
31848;SDS011;18414;59.352;18.152;2023-08-08T07:11:58;1.45;;;0.50;;
31848;SDS011;18414;59.352;18.152;2023-08-08T07:14:24;1.02;;;0.50;;
31848;SDS011;18414;59.352;18.152;2023-08-08T07:16:49;0.93;;;0.60;;
31848;SDS011;18414;59.352;18.152;2023-08-08T07:19:15;0.88;;;0.52;;
31848;SDS011;18414;59.352;18.152;2023-08-08T07:21:41;0.57;;;0.57;;
31848;SDS011;18414;59.352;18.152;2023-08-08T07:24:06;0.88;;;0.60;;
31848;SDS011;18414;59.352;18.152;2023-08-08T07:26:33;1.30;;;0.60;;
31848;SDS011;18414;59.352;18.152;2023-08-08T07:28:59;1.60;;;0.70;;
31848;SDS011;18414;59.352;18.152;2023-08-08T07:31:24;1.67;;;0.85;;
31848;SDS011;18414;59.352;18.152;2023-08-08T07:33:49;1.15;;;0.88;;
31848;SDS011;18414;59.352;18.152;2023-08-08T07:36:15;2.70;;;0.82;;
31848;SDS011;18414;59.352;18.152;2023-08-08T07:38:40;2.95;;;1.10;;
31848;SDS011;18414;59.352;18.152;2023-08-08T07:41:06;1.55;;;0.90;;
31848;SDS011;18414;59.352;18.152;2023-08-08T07:43:31;2.20;;;0.88;;
31848;SDS011;18414;59.352;18.152;2023-08-08T07:45:56;2.33;;;0.82;;
31848;SDS011;18414;59.352;18.152;2023-08-08T07:48:22;0.93;;;0.82;;
31848;SDS011;18414;59.352;18.152;2023-08-08T07:50:47;1.67;;;1.00;;
31848;SDS011;18414;59.352;18.152;2023-08-08T07:53:13;3.50;;;0.93;;
31848;SDS011;18414;59.352;18.152;2023-08-08T07:55:38;1.35;;;0.90;;
31848;SDS011;18414;59.352;18.152;2023-08-08T07:58:03;1.02;;;0.90;;
31848;SDS011;18414;59.352;18.152;2023-08-08T08:00:29;2.05;;;1.10;;
31848;SDS011;18414;59.352;18.152;2023-08-08T08:02:54;1.52;;;0.95;;
31848;SDS011;18414;59.352;18.152;2023-08-08T08:05:19;1.10;;;1.00;;
31848;SDS011;18414;59.352;18.152;2023-08-08T08:07:46;0.80;;;0.80;;
31848;SDS011;18414;59.352;18.152;2023-08-08T08:10:12;1.92;;;0.80;;
31848;SDS011;18414;59.352;18.152;2023-08-08T08:12:38;1.98;;;1.00;;
31848;SDS011;18414;59.352;18.152;2023-08-08T08:15:04;1.10;;;0.90;;
31848;SDS011;18414;59.352;18.152;2023-08-08T08:17:30;2.05;;;1.10;;
31848;SDS011;18414;59.352;18.152;2023-08-08T08:19:55;2.35;;;1.42;;
31848;SDS011;18414;59.352;18.152;2023-08-08T08:22:20;1.52;;;1.10;;
31848;SDS011;18414;59.352;18.152;2023-08-08T08:24:46;2.45;;;1.20;;
31848;SDS011;18414;59.352;18.152;2023-08-08T08:27:11;1.40;;;1.05;;
31848;SDS011;18414;59.352;18.152;2023-08-08T08:29:37;3.42;;;1.00;;
31848;SDS011;18414;59.352;18.152;2023-08-08T08:32:02;1.70;;;0.90;;
31848;SDS011;18414;59.352;18.152;2023-08-08T08:34:28;1.95;;;1.10;;
31848;SDS011;18414;59.352;18.152;2023-08-08T08:36:54;1.65;;;1.05;;
31848;SDS011;18414;59.352;18.152;2023-08-08T08:39:19;2.65;;;1.13;;
31848;SDS011;18414;59.352;18.152;2023-08-08T08:41:45;1.20;;;0.90;;
31848;SDS011;18414;59.352;18.152;2023-08-08T08:44:14;4.65;;;1.20;;
31848;SDS011;18414;59.352;18.152;2023-08-08T08:46:41;1.85;;;1.10;;
31848;SDS011;18414;59.352;18.152;2023-08-08T08:49:08;1.17;;;1.05;;
31848;SDS011;18414;59.352;18.152;2023-08-08T08:51:35;1.50;;;0.85;;
31848;SDS011;18414;59.352;18.152;2023-08-08T08:54:01;2.65;;;1.20;;
31848;SDS011;18414;59.352;18.152;2023-08-08T08:56:26;1.13;;;0.80;;
31848;SDS011;18414;59.352;18.152;2023-08-08T08:58:52;2.88;;;1.00;;
31848;SDS011;18414;59.352;18.152;2023-08-08T09:01:17;1.00;;;0.70;;
31848;SDS011;18414;59.352;18.152;2023-08-08T09:03:44;1.20;;;0.70;;
31848;SDS011;18414;59.352;18.152;2023-08-08T09:06:11;0.60;;;0.60;;
31848;SDS011;18414;59.352;18.152;2023-08-08T09:08:37;0.75;;;0.57;;
31848;SDS011;18414;59.352;18.152;2023-08-08T09:11:03;1.13;;;0.80;;
31848;SDS011;18414;59.352;18.152;2023-08-08T09:13:34;0.60;;;0.60;;
31848;SDS011;18414;59.352;18.152;2023-08-08T09:16:01;2.28;;;0.73;;
31848;SDS011;18414;59.352;18.152;2023-08-08T09:18:26;0.80;;;0.80;;
31848;SDS011;18414;59.352;18.152;2023-08-08T09:20:52;1.00;;;0.90;;
31848;SDS011;18414;59.352;18.152;2023-08-08T09:23:17;1.63;;;0.82;;
31848;SDS011;18414;59.352;18.152;2023-08-08T09:25:42;1.10;;;0.88;;
31848;SDS011;18414;59.352;18.152;2023-08-08T09:28:08;1.10;;;1.00;;
31848;SDS011;18414;59.352;18.152;2023-08-08T09:30:34;1.30;;;1.20;;
31848;SDS011;18414;59.352;18.152;2023-08-08T09:33:00;1.73;;;1.20;;
31848;SDS011;18414;59.352;18.152;2023-08-08T09:35:28;1.40;;;1.20;;
31848;SDS011;18414;59.352;18.152;2023-08-08T09:37:54;1.35;;;1.10;;
31848;SDS011;18414;59.352;18.152;2023-08-08T09:40:20;1.38;;;1.13;;
31848;SDS011;18414;59.352;18.152;2023-08-08T09:42:46;1.73;;;1.23;;
31848;SDS011;18414;59.352;18.152;2023-08-08T09:45:12;2.03;;;1.30;;
31848;SDS011;18414;59.352;18.152;2023-08-08T09:47:37;1.40;;;1.30;;
31848;SDS011;18414;59.352;18.152;2023-08-08T09:50:03;1.40;;;1.30;;
31848;SDS011;18414;59.352;18.152;2023-08-08T09:52:32;1.33;;;1.23;;
31848;SDS011;18414;59.352;18.152;2023-08-08T09:54:59;1.30;;;1.20;;
31848;SDS011;18414;59.352;18.152;2023-08-08T09:57:25;3.47;;;1.40;;
31848;SDS011;18414;59.352;18.152;2023-08-08T09:59:51;1.67;;;1.52;;
31848;SDS011;18414;59.352;18.152;2023-08-08T10:02:17;1.73;;;1.60;;
31848;SDS011;18414;59.352;18.152;2023-08-08T10:04:44;2.00;;;1.80;;
31848;SDS011;18414;59.352;18.152;2023-08-08T10:07:09;1.98;;;1.70;;
31848;SDS011;18414;59.352;18.152;2023-08-08T10:09:35;2.08;;;1.80;;
31848;SDS011;18414;59.352;18.152;2023-08-08T10:12:02;2.80;;;1.65;;
31848;SDS011;18414;59.352;18.152;2023-08-08T10:14:31;2.20;;;1.50;;
31848;SDS011;18414;59.352;18.152;2023-08-08T10:16:57;2.85;;;1.40;;
31848;SDS011;18414;59.352;18.152;2023-08-08T10:19:23;2.72;;;1.40;;
31848;SDS011;18414;59.352;18.152;2023-08-08T10:21:54;2.67;;;1.20;;
31848;SDS011;18414;59.352;18.152;2023-08-08T10:24:21;1.40;;;1.30;;
31848;SDS011;18414;59.352;18.152;2023-08-08T10:26:53;1.30;;;1.20;;
31848;SDS011;18414;59.352;18.152;2023-08-08T10:29:23;3.15;;;1.10;;
31848;SDS011;18414;59.352;18.152;2023-08-08T10:34:26;1.75;;;0.77;;
31848;SDS011;18414;59.352;18.152;2023-08-08T10:36:52;0.88;;;0.80;;
31848;SDS011;18414;59.352;18.152;2023-08-08T10:39:19;2.65;;;0.80;;
31848;SDS011;18414;59.352;18.152;2023-08-08T10:41:46;3.58;;;1.55;;
31848;SDS011;18414;59.352;18.152;2023-08-08T10:44:13;1.33;;;0.75;;
31848;SDS011;18414;59.352;18.152;2023-08-08T10:46:40;1.70;;;0.82;;
31848;SDS011;18414;59.352;18.152;2023-08-08T10:49:08;0.93;;;0.90;;
31848;SDS011;18414;59.352;18.152;2023-08-08T10:51:37;1.33;;;0.82;;
31848;SDS011;18414;59.352;18.152;2023-08-08T10:54:14;2.20;;;0.95;;
31848;SDS011;18414;59.352;18.152;2023-08-08T10:56:47;2.08;;;0.90;;
31848;SDS011;18414;59.352;18.152;2023-08-08T10:59:14;1.30;;;0.90;;
31848;SDS011;18414;59.352;18.152;2023-08-08T11:01:49;1.20;;;0.80;;
31848;SDS011;18414;59.352;18.152;2023-08-08T11:04:18;1.75;;;0.80;;
31848;SDS011;18414;59.352;18.152;2023-08-08T11:06:44;0.95;;;0.63;;
31848;SDS011;18414;59.352;18.152;2023-08-08T11:09:09;1.30;;;0.57;;
31848;SDS011;18414;59.352;18.152;2023-08-08T11:11:41;1.10;;;0.70;;
31848;SDS011;18414;59.352;18.152;2023-08-08T11:14:08;0.85;;;0.57;;
31848;SDS011;18414;59.352;18.152;2023-08-08T11:16:38;1.75;;;0.77;;
31848;SDS011;18414;59.352;18.152;2023-08-08T11:19:03;2.45;;;0.90;;
31848;SDS011;18414;59.352;18.152;2023-08-08T11:21:29;1.23;;;0.77;;
31848;SDS011;18414;59.352;18.152;2023-08-08T11:23:54;5.50;;;0.95;;
31848;SDS011;18414;59.352;18.152;2023-08-08T11:26:20;1.92;;;1.17;;
31848;SDS011;18414;59.352;18.152;2023-08-08T11:28:49;1.05;;;0.85;;
31848;SDS011;18414;59.352;18.152;2023-08-08T11:31:15;1.67;;;0.95;;
31848;SDS011;18414;59.352;18.152;2023-08-08T11:33:40;1.33;;;0.85;;
31848;SDS011;18414;59.352;18.152;2023-08-08T11:36:06;2.72;;;0.90;;
31848;SDS011;18414;59.352;18.152;2023-08-08T11:38:32;2.25;;;0.80;;
31848;SDS011;18414;59.352;18.152;2023-08-08T11:40:58;3.67;;;0.90;;
31848;SDS011;18414;59.352;18.152;2023-08-08T11:43:23;1.63;;;0.73;;
31848;SDS011;18414;59.352;18.152;2023-08-08T11:45:49;1.92;;;1.10;;
31848;SDS011;18414;59.352;18.152;2023-08-08T11:48:20;2.30;;;0.85;;
31848;SDS011;18414;59.352;18.152;2023-08-08T11:50:45;1.25;;;0.80;;
31848;SDS011;18414;59.352;18.152;2023-08-08T11:53:11;2.90;;;0.85;;
31848;SDS011;18414;59.352;18.152;2023-08-08T11:55:37;2.10;;;0.85;;
31848;SDS011;18414;59.352;18.152;2023-08-08T11:58:02;3.95;;;0.90;;
31848;SDS011;18414;59.352;18.152;2023-08-08T12:00:28;1.17;;;0.70;;
31848;SDS011;18414;59.352;18.152;2023-08-08T12:02:57;2.05;;;0.77;;
31848;SDS011;18414;59.352;18.152;2023-08-08T12:05:23;1.40;;;0.63;;
31848;SDS011;18414;59.352;18.152;2023-08-08T12:07:48;2.03;;;0.90;;
31848;SDS011;18414;59.352;18.152;2023-08-08T12:10:16;1.65;;;0.90;;
31848;SDS011;18414;59.352;18.152;2023-08-08T12:12:45;1.02;;;0.93;;
31848;SDS011;18414;59.352;18.152;2023-08-08T12:15:11;3.55;;;0.70;;
31848;SDS011;18414;59.352;18.152;2023-08-08T12:17:37;3.67;;;0.90;;
31848;SDS011;18414;59.352;18.152;2023-08-08T12:20:04;2.15;;;0.88;;
31848;SDS011;18414;59.352;18.152;2023-08-08T12:22:30;2.60;;;1.00;;
31848;SDS011;18414;59.352;18.152;2023-08-08T12:24:56;3.03;;;0.80;;
31848;SDS011;18414;59.352;18.152;2023-08-08T12:27:21;1.40;;;0.70;;
31848;SDS011;18414;59.352;18.152;2023-08-08T12:29:48;5.03;;;1.17;;
31848;SDS011;18414;59.352;18.152;2023-08-08T12:32:13;2.80;;;0.77;;
31848;SDS011;18414;59.352;18.152;2023-08-08T12:34:38;2.88;;;0.80;;
31848;SDS011;18414;59.352;18.152;2023-08-08T12:37:04;2.28;;;1.00;;
31848;SDS011;18414;59.352;18.152;2023-08-08T12:39:29;2.03;;;1.00;;
31848;SDS011;18414;59.352;18.152;2023-08-08T12:41:55;2.88;;;1.00;;
31848;SDS011;18414;59.352;18.152;2023-08-08T12:44:21;4.85;;;0.80;;
31848;SDS011;18414;59.352;18.152;2023-08-08T12:46:46;3.60;;;0.90;;
31848;SDS011;18414;59.352;18.152;2023-08-08T12:49:11;1.38;;;0.73;;
31848;SDS011;18414;59.352;18.152;2023-08-08T12:51:37;2.20;;;0.70;;
31848;SDS011;18414;59.352;18.152;2023-08-08T12:54:02;2.45;;;0.98;;
31848;SDS011;18414;59.352;18.152;2023-08-08T12:56:28;1.75;;;0.90;;
31848;SDS011;18414;59.352;18.152;2023-08-08T12:58:53;2.30;;;1.08;;
31848;SDS011;18414;59.352;18.152;2023-08-08T13:01:18;4.38;;;0.90;;
31848;SDS011;18414;59.352;18.152;2023-08-08T13:03:44;2.30;;;0.70;;
31848;SDS011;18414;59.352;18.152;2023-08-08T13:06:09;2.45;;;0.82;;
31848;SDS011;18414;59.352;18.152;2023-08-08T13:08:36;2.95;;;0.80;;
31848;SDS011;18414;59.352;18.152;2023-08-08T13:11:02;3.05;;;1.00;;
31848;SDS011;18414;59.352;18.152;2023-08-08T13:13:27;3.20;;;0.90;;
31848;SDS011;18414;59.352;18.152;2023-08-08T13:15:53;2.90;;;0.68;;
31848;SDS011;18414;59.352;18.152;2023-08-08T13:18:18;1.58;;;0.90;;
31848;SDS011;18414;59.352;18.152;2023-08-08T13:20:43;7.97;;;1.20;;
31848;SDS011;18414;59.352;18.152;2023-08-08T13:23:09;3.67;;;1.10;;
31848;SDS011;18414;59.352;18.152;2023-08-08T13:25:34;3.75;;;1.33;;
31848;SDS011;18414;59.352;18.152;2023-08-08T13:28:00;3.30;;;1.00;;
31848;SDS011;18414;59.352;18.152;2023-08-08T13:30:27;3.50;;;1.20;;
31848;SDS011;18414;59.352;18.152;2023-08-08T13:32:53;5.40;;;1.20;;
31848;SDS011;18414;59.352;18.152;2023-08-08T13:35:19;4.10;;;0.98;;
31848;SDS011;18414;59.352;18.152;2023-08-08T13:37:44;3.55;;;1.08;;
31848;SDS011;18414;59.352;18.152;2023-08-08T13:40:11;2.97;;;1.08;;
31848;SDS011;18414;59.352;18.152;2023-08-08T13:42:36;3.10;;;1.02;;
31848;SDS011;18414;59.352;18.152;2023-08-08T13:45:01;2.60;;;1.00;;
31848;SDS011;18414;59.352;18.152;2023-08-08T13:47:27;2.03;;;0.88;;
31848;SDS011;18414;59.352;18.152;2023-08-08T13:49:52;2.10;;;0.90;;
31848;SDS011;18414;59.352;18.152;2023-08-08T13:52:18;2.25;;;0.90;;
31848;SDS011;18414;59.352;18.152;2023-08-08T13:54:43;4.15;;;1.10;;
31848;SDS011;18414;59.352;18.152;2023-08-08T13:57:09;2.72;;;0.90;;
31848;SDS011;18414;59.352;18.152;2023-08-08T13:59:34;3.05;;;0.93;;
31848;SDS011;18414;59.352;18.152;2023-08-08T14:01:59;3.05;;;1.00;;
31848;SDS011;18414;59.352;18.152;2023-08-08T14:04:25;3.72;;;1.00;;
31848;SDS011;18414;59.352;18.152;2023-08-08T14:06:50;1.52;;;0.75;;
31848;SDS011;18414;59.352;18.152;2023-08-08T14:09:15;1.13;;;0.80;;
31848;SDS011;18414;59.352;18.152;2023-08-08T14:11:41;4.88;;;1.10;;
31848;SDS011;18414;59.352;18.152;2023-08-08T14:14:07;4.15;;;0.85;;
31848;SDS011;18414;59.352;18.152;2023-08-08T14:16:32;2.15;;;1.20;;
31848;SDS011;18414;59.352;18.152;2023-08-08T14:19:00;1.65;;;0.70;;
31848;SDS011;18414;59.352;18.152;2023-08-08T14:21:26;1.75;;;0.70;;
31848;SDS011;18414;59.352;18.152;2023-08-08T14:23:53;2.75;;;0.88;;
31848;SDS011;18414;59.352;18.152;2023-08-08T14:26:18;4.00;;;1.33;;
31848;SDS011;18414;59.352;18.152;2023-08-08T14:28:45;5.20;;;1.20;;